createdAt,value
2023-01-28T00:01:42.958Z,23.90
2023-01-28T00:04:11.345Z,19.90
2023-01-28T00:06:39.759Z,24.03
2023-01-28T00:09:09.539Z,22.97
2023-01-28T00:11:37.976Z,23.30
2023-01-28T00:14:06.357Z,22.13
2023-01-28T00:16:34.904Z,23.03
2023-01-28T00:19:03.309Z,20.43
2023-01-28T00:21:31.752Z,20.37
2023-01-28T00:24:00.205Z,24.13
2023-01-28T00:26:30.321Z,22.90
2023-01-28T00:28:58.687Z,21.23
2023-01-28T00:31:28.590Z,20.57
2023-01-28T00:33:57.701Z,20.97
2023-01-28T00:36:27.010Z,19.77
2023-01-28T00:38:56.301Z,20.87
2023-01-28T00:41:25.654Z,21.60
2023-01-28T00:43:55.917Z,21.23
2023-01-28T00:46:26.428Z,19.13
2023-01-28T00:48:54.921Z,20.97
2023-01-28T00:51:23.287Z,21.30
2023-01-28T00:53:51.727Z,21.87
2023-01-28T00:56:20.797Z,21.43
2023-01-28T00:58:49.605Z,21.23
2023-01-28T01:01:21.267Z,21.57
2023-01-28T01:03:57.534Z,22.40
2023-01-28T01:06:26.555Z,20.80
2023-01-28T01:08:54.927Z,21.43
2023-01-28T01:11:23.475Z,21.47
2023-01-28T01:13:52.521Z,22.63
2023-01-28T01:16:22.444Z,22.77
2023-01-28T01:18:52.334Z,23.27
2023-01-28T01:21:21.579Z,22.37
2023-01-28T01:23:49.950Z,24.00
2023-01-28T01:26:18.328Z,22.20
2023-01-28T01:28:46.808Z,22.83
2023-01-28T01:31:16.101Z,24.40
2023-01-28T01:33:46.828Z,21.93
2023-01-28T01:36:16.730Z,23.33
2023-01-28T01:38:46.035Z,23.07
2023-01-28T01:41:22.181Z,21.70
2023-01-28T01:43:51.470Z,22.67
2023-01-28T01:46:21.594Z,23.20
2023-01-28T01:48:51.585Z,22.83
2023-01-28T01:51:21.171Z,21.73
2023-01-28T01:53:51.425Z,23.10
2023-01-28T01:56:23.369Z,22.33
2023-01-28T01:58:55.266Z,22.37
2023-01-28T02:01:26.024Z,23.77
2023-01-28T02:03:59.623Z,23.20
2023-01-28T02:06:28.900Z,22.77
2023-01-28T02:08:57.398Z,22.87
2023-01-28T02:11:27.256Z,22.37
2023-01-28T02:14:00.170Z,21.23
2023-01-28T02:16:29.783Z,21.53
2023-01-28T02:18:59.619Z,21.63
2023-01-28T02:21:48.238Z,22.27
2023-01-28T02:24:40.751Z,22.97
2023-01-28T02:27:19.410Z,21.27
2023-01-28T02:29:52.077Z,23.50
2023-01-28T02:32:22.847Z,21.63
2023-01-28T02:34:54.139Z,21.87
2023-01-28T02:37:23.628Z,21.03
2023-01-28T02:39:53.947Z,21.40
2023-01-28T02:42:25.499Z,18.83
2023-01-28T02:44:55.895Z,21.23
2023-01-28T02:47:41.985Z,21.43
2023-01-28T02:50:12.238Z,20.77
2023-01-28T02:53:10.237Z,21.40
2023-01-28T02:55:41.613Z,20.83
2023-01-28T02:58:15.355Z,21.43
2023-01-28T03:00:48.340Z,21.50
2023-01-28T03:03:18.829Z,21.47
2023-01-28T03:06:03.515Z,22.30
2023-01-28T03:08:52.663Z,21.57
2023-01-28T03:11:39.320Z,22.30
2023-01-28T03:14:28.465Z,20.57
2023-01-28T03:17:19.199Z,20.90
2023-01-28T03:20:05.776Z,19.63
2023-01-28T03:22:54.000Z,19.70
2023-01-28T03:25:40.842Z,18.90
2023-01-28T03:28:29.765Z,19.30
2023-01-28T03:31:21.636Z,20.17
2023-01-28T03:34:12.632Z,19.40
2023-01-28T03:36:54.335Z,18.33
2023-01-28T03:39:40.941Z,17.37
2023-01-28T03:42:13.055Z,17.73
2023-01-28T03:45:05.480Z,19.73
2023-01-28T03:47:35.196Z,18.67
2023-01-28T03:50:08.198Z,17.83
2023-01-28T03:52:45.341Z,17.97
2023-01-28T03:55:30.971Z,18.57
2023-01-28T03:57:59.505Z,17.60
2023-01-28T04:00:28.007Z,18.07
2023-01-28T04:02:57.620Z,18.53
2023-01-28T04:05:27.557Z,19.23
2023-01-28T04:07:56.822Z,18.93
2023-01-28T04:10:35.601Z,20.03
2023-01-28T04:13:22.635Z,18.30
2023-01-28T04:15:51.493Z,17.90
2023-01-28T04:18:27.281Z,20.57
2023-01-28T04:20:58.812Z,18.33
2023-01-28T04:23:27.314Z,17.57
2023-01-28T04:25:55.773Z,20.17
2023-01-28T04:28:25.212Z,18.60
2023-01-28T04:30:54.260Z,18.70
2023-01-28T04:33:36.484Z,16.50
2023-01-28T04:36:16.385Z,17.57
2023-01-28T04:38:52.683Z,17.57
2023-01-28T04:41:56.364Z,17.00
2023-01-28T04:44:49.868Z,17.10
2023-01-28T04:47:28.485Z,18.20
2023-01-28T04:50:07.095Z,17.37
2023-01-28T04:52:44.699Z,17.50
2023-01-28T04:55:28.304Z,19.10
2023-01-28T04:57:56.795Z,18.60
2023-01-28T05:00:25.237Z,18.10
2023-01-28T05:02:53.878Z,19.23
2023-01-28T05:05:22.359Z,18.23
2023-01-28T05:08:06.826Z,17.77
2023-01-28T05:10:35.228Z,18.17
2023-01-28T05:13:03.672Z,16.93
2023-01-28T05:15:32.169Z,17.03
2023-01-28T05:18:01.088Z,17.27
2023-01-28T05:20:35.533Z,17.43
2023-01-28T05:23:06.598Z,16.13
2023-01-28T05:25:50.121Z,18.37
2023-01-28T05:28:18.586Z,17.27
2023-01-28T05:30:47.025Z,18.40
2023-01-28T05:33:15.481Z,16.93
2023-01-28T05:35:44.058Z,18.80
2023-01-28T05:38:15.472Z,17.37
2023-01-28T05:40:44.250Z,17.10
2023-01-28T05:43:12.691Z,17.00
2023-01-28T05:45:53.801Z,16.87
2023-01-28T05:48:42.576Z,16.67
2023-01-28T05:51:29.736Z,17.67
2023-01-28T05:54:01.271Z,17.03
2023-01-28T05:56:29.796Z,17.00
2023-01-28T05:58:58.239Z,18.30
2023-01-28T06:01:26.656Z,16.50
2023-01-28T06:03:56.150Z,17.97
2023-01-28T06:06:24.573Z,16.63
2023-01-28T06:08:53.393Z,17.03
2023-01-28T06:11:29.055Z,15.77
2023-01-28T06:14:02.289Z,16.93
2023-01-28T06:16:43.502Z,16.27
2023-01-28T06:19:27.651Z,17.00
2023-01-28T06:21:57.089Z,16.23
2023-01-28T06:24:25.532Z,17.53
2023-01-28T06:26:55.401Z,17.00
2023-01-28T06:29:23.823Z,16.20
2023-01-28T06:31:52.258Z,16.90
2023-01-28T06:34:20.852Z,16.70
2023-01-28T06:36:51.015Z,15.87
2023-01-28T06:39:21.227Z,16.63
2023-01-28T06:41:49.672Z,18.30
2023-01-28T06:44:20.091Z,16.77
2023-01-28T06:46:48.504Z,18.33
2023-01-28T06:49:17.101Z,19.07
2023-01-28T06:51:45.538Z,17.37
2023-01-28T06:54:13.989Z,17.50
2023-01-28T06:56:42.963Z,17.23
2023-01-28T06:59:11.626Z,17.87
2023-01-28T07:01:41.417Z,17.67
2023-01-28T07:04:10.058Z,18.40
2023-01-28T07:06:38.471Z,17.67
2023-01-28T07:09:07.026Z,18.10
2023-01-28T07:11:35.630Z,17.17
2023-01-28T07:14:04.895Z,17.60
2023-01-28T07:16:33.397Z,17.90
2023-01-28T07:19:03.329Z,17.50
2023-01-28T07:21:31.772Z,17.70
2023-01-28T07:24:00.392Z,18.30
2023-01-28T07:26:29.062Z,16.63
2023-01-28T07:28:57.518Z,16.83
2023-01-28T07:31:26.107Z,16.10
2023-01-28T07:33:54.670Z,16.13
2023-01-28T07:36:24.480Z,16.23
2023-01-28T07:38:52.977Z,16.20
2023-01-28T07:41:21.432Z,16.97
2023-01-28T07:43:49.840Z,16.53
2023-01-28T07:46:18.849Z,16.30
2023-01-28T07:48:47.253Z,16.30
2023-01-28T07:51:15.681Z,16.57
2023-01-28T07:53:45.507Z,16.90
2023-01-28T07:56:13.943Z,15.23
2023-01-28T07:58:42.369Z,15.50
2023-01-28T08:01:10.793Z,16.73
2023-01-28T08:03:39.210Z,17.30
2023-01-28T08:06:07.837Z,16.73
2023-01-28T08:08:36.405Z,15.70
2023-01-28T08:11:10.782Z,16.90
2023-01-28T08:13:39.215Z,15.10
2023-01-28T08:16:08.256Z,16.40
2023-01-28T08:18:36.749Z,15.67
2023-01-28T08:21:05.498Z,15.13
2023-01-28T08:23:34.708Z,15.40
2023-01-28T08:26:03.375Z,15.53
2023-01-28T08:28:33.216Z,15.30
2023-01-28T08:31:02.030Z,15.50
2023-01-28T08:33:30.784Z,15.70
2023-01-28T08:35:59.181Z,15.50
2023-01-28T08:38:27.650Z,15.93
2023-01-28T08:40:58.965Z,13.87
2023-01-28T08:43:27.674Z,14.63
2023-01-28T08:45:57.561Z,14.23
2023-01-28T08:48:26.082Z,14.93
2023-01-28T08:50:54.562Z,14.63
2023-01-28T08:53:23.289Z,16.17
2023-01-28T08:55:51.829Z,14.83
2023-01-28T08:58:20.640Z,16.30
2023-01-28T09:00:49.522Z,15.03
2023-01-28T09:03:19.731Z,14.63
2023-01-28T09:05:49.647Z,15.60
2023-01-28T09:08:18.273Z,14.27
2023-01-28T09:10:46.950Z,15.00
2023-01-28T09:13:16.906Z,15.90
2023-01-28T09:15:45.423Z,15.70
2023-01-28T09:18:14.020Z,15.33
2023-01-28T09:20:43.905Z,16.10
2023-01-28T09:23:12.414Z,14.97
2023-01-28T09:25:40.888Z,15.07
2023-01-28T09:28:09.568Z,16.00
2023-01-28T09:30:39.569Z,14.93
2023-01-28T09:33:08.697Z,15.67
2023-01-28T09:35:37.842Z,15.17
2023-01-28T09:38:07.598Z,14.47
2023-01-28T09:40:37.620Z,15.17
2023-01-28T09:43:25.791Z,15.37
2023-01-28T09:45:55.164Z,13.80
2023-01-28T09:48:26.348Z,15.30
2023-01-28T09:50:55.601Z,14.80
2023-01-28T09:53:26.686Z,13.40
2023-01-28T09:55:57.296Z,14.90
2023-01-28T09:58:26.006Z,15.13
2023-01-28T10:01:02.637Z,16.67
2023-01-28T10:03:37.456Z,14.87
2023-01-28T10:06:10.627Z,14.73
2023-01-28T10:08:52.881Z,15.37
2023-01-28T10:11:26.793Z,14.20
2023-01-28T10:14:00.235Z,13.43
2023-01-28T10:16:32.190Z,14.73
2023-01-28T10:19:04.999Z,13.47
2023-01-28T10:21:37.868Z,13.80
2023-01-28T10:24:14.086Z,13.00
2023-01-28T10:26:45.973Z,14.07
2023-01-28T10:29:17.635Z,14.73
2023-01-28T10:31:54.779Z,15.57
2023-01-28T10:34:25.448Z,13.40
2023-01-28T10:36:56.142Z,14.23
2023-01-28T10:39:28.201Z,13.47
2023-01-28T10:41:59.022Z,13.40
2023-01-28T10:44:36.810Z,14.17
2023-01-28T10:47:10.740Z,15.80
2023-01-28T10:49:45.015Z,13.70
2023-01-28T10:52:15.797Z,14.27
2023-01-28T10:54:46.693Z,12.70
2023-01-28T10:57:19.632Z,13.77
2023-01-28T10:59:51.329Z,13.20
2023-01-28T11:02:27.781Z,14.43
2023-01-28T11:05:04.689Z,13.70
2023-01-28T11:07:35.304Z,12.30
2023-01-28T11:10:05.299Z,13.50
2023-01-28T11:12:33.739Z,12.80
2023-01-28T11:15:03.314Z,13.73
2023-01-28T11:17:33.785Z,13.13
2023-01-28T11:20:03.464Z,12.73
2023-01-28T11:22:34.747Z,14.33
2023-01-28T11:25:06.425Z,14.13
2023-01-28T11:27:35.326Z,13.63
2023-01-28T11:30:04.768Z,13.10
2023-01-28T11:32:33.654Z,13.83
2023-01-28T11:35:02.076Z,12.13
2023-01-28T11:37:31.581Z,12.57
2023-01-28T11:40:05.541Z,12.63
2023-01-28T11:42:34.008Z,12.60
2023-01-28T11:45:02.443Z,13.57
2023-01-28T11:47:36.759Z,12.70
2023-01-28T11:50:17.247Z,11.57
2023-01-28T11:53:06.052Z,12.60
2023-01-28T11:55:53.228Z,12.00
2023-01-28T11:58:24.147Z,12.07
2023-01-28T12:00:58.069Z,14.00
2023-01-28T12:03:36.701Z,15.43
2023-01-28T12:06:14.800Z,13.00
2023-01-28T12:08:47.277Z,13.47
2023-01-28T12:11:44.056Z,13.00
2023-01-28T12:14:14.792Z,12.07
2023-01-28T12:16:57.038Z,11.30
2023-01-28T12:19:32.968Z,11.83
2023-01-28T12:22:07.265Z,12.50
2023-01-28T12:24:42.808Z,11.57
2023-01-28T12:27:20.114Z,11.53
2023-01-28T12:29:56.615Z,11.93
2023-01-28T12:32:39.193Z,11.90
2023-01-28T12:35:24.223Z,10.97
2023-01-28T12:38:00.549Z,11.50
2023-01-28T12:40:47.409Z,12.17
2023-01-28T12:43:20.794Z,12.97
2023-01-28T12:45:51.841Z,13.23
2023-01-28T12:48:23.182Z,12.67
2023-01-28T12:50:53.957Z,14.37
2023-01-28T12:53:25.195Z,11.40
2023-01-28T12:55:56.680Z,10.77
2023-01-28T12:58:33.881Z,11.33
2023-01-28T13:01:04.615Z,13.43
2023-01-28T13:03:37.357Z,14.07
2023-01-28T13:06:09.966Z,14.00
2023-01-28T13:08:38.664Z,13.07
2023-01-28T13:11:07.892Z,11.73
2023-01-28T13:13:38.749Z,13.13
2023-01-28T13:16:09.353Z,14.10
2023-01-28T13:18:46.377Z,12.87
2023-01-28T13:21:16.603Z,12.97
2023-01-28T13:23:46.245Z,13.97
2023-01-28T13:26:29.588Z,12.80
2023-01-28T13:29:10.466Z,13.47
2023-01-28T13:31:40.167Z,14.50
2023-01-28T13:34:09.619Z,13.63
2023-01-28T13:36:40.075Z,13.77
2023-01-28T13:39:09.273Z,13.57
2023-01-28T13:41:41.492Z,14.10
2023-01-28T13:44:21.004Z,13.87
2023-01-28T13:46:49.458Z,13.97
2023-01-28T13:49:20.745Z,14.20
2023-01-28T13:51:57.386Z,12.70
2023-01-28T13:54:26.793Z,10.70
2023-01-28T13:57:06.686Z,10.80
2023-01-28T13:59:46.435Z,11.03
2023-01-28T14:02:32.774Z,10.53
2023-01-28T14:05:07.939Z,10.43
2023-01-28T14:07:53.316Z,10.33
2023-01-28T14:10:35.548Z,10.17
2023-01-28T14:13:30.768Z,11.00
2023-01-28T14:16:20.207Z,10.77
2023-01-28T14:18:50.958Z,10.77
2023-01-28T14:21:21.943Z,11.87
2023-01-28T14:23:51.438Z,12.00
2023-01-28T14:26:33.014Z,12.40
2023-01-28T14:29:08.966Z,12.70
2023-01-28T14:31:38.348Z,13.13
2023-01-28T14:34:16.689Z,13.13
2023-01-28T14:36:46.597Z,13.40
2023-01-28T14:39:20.367Z,14.27
2023-01-28T14:41:50.497Z,14.37
2023-01-28T14:44:31.144Z,12.23
2023-01-28T14:47:07.608Z,13.73
2023-01-28T14:49:38.791Z,14.97
2023-01-28T14:52:35.862Z,15.23
2023-01-28T14:55:15.552Z,13.70
2023-01-28T14:57:49.858Z,13.60
2023-01-28T15:00:20.934Z,14.33
2023-01-28T15:02:49.360Z,14.03
2023-01-28T15:05:21.013Z,13.60
2023-01-28T15:07:51.279Z,13.13
2023-01-28T15:10:22.907Z,13.77
2023-01-28T15:12:56.038Z,14.73
2023-01-28T15:15:30.007Z,13.13
2023-01-28T15:18:00.672Z,13.60
2023-01-28T15:20:29.066Z,13.67
2023-01-28T15:22:59.091Z,14.40
2023-01-28T15:25:29.922Z,13.30
2023-01-28T15:28:00.855Z,14.73
2023-01-28T15:30:31.472Z,14.87
2023-01-28T15:33:00.901Z,14.60
2023-01-28T15:35:29.444Z,15.27
2023-01-28T15:37:59.319Z,15.23
2023-01-28T15:40:27.916Z,15.60
2023-01-28T15:42:58.776Z,15.73
2023-01-28T15:45:28.155Z,15.40
2023-01-28T15:48:04.748Z,15.60
2023-01-28T15:50:33.258Z,16.23
2023-01-28T15:53:03.072Z,15.23
2023-01-28T15:55:39.430Z,16.50
2023-01-28T15:58:21.221Z,16.77
2023-01-28T16:00:50.587Z,15.93
2023-01-28T16:03:20.991Z,16.23
2023-01-28T16:06:00.307Z,15.97
2023-01-28T16:08:35.975Z,18.37
2023-01-28T16:11:04.443Z,17.23
2023-01-28T16:13:34.143Z,17.43
2023-01-28T16:16:03.539Z,17.70
2023-01-28T16:18:39.825Z,19.10
2023-01-28T16:21:10.432Z,17.73
2023-01-28T16:23:40.918Z,19.87
2023-01-28T16:26:21.866Z,19.73
2023-01-28T16:28:50.301Z,20.17
2023-01-28T16:31:19.190Z,19.60
2023-01-28T16:33:47.723Z,19.30
2023-01-28T16:36:18.063Z,19.67
2023-01-28T16:38:48.012Z,20.33
2023-01-28T16:41:21.015Z,21.60
2023-01-28T16:43:49.431Z,21.87
2023-01-28T16:46:17.921Z,21.20
2023-01-28T16:48:46.493Z,22.03
2023-01-28T16:51:18.954Z,23.20
2023-01-28T16:53:49.394Z,23.43
2023-01-28T16:56:35.700Z,23.60
2023-01-28T16:59:07.621Z,23.20
2023-01-28T17:01:36.042Z,24.07
2023-01-28T17:04:12.106Z,24.13
2023-01-28T17:06:43.025Z,24.03
2023-01-28T17:09:13.554Z,23.63
2023-01-28T17:11:42.560Z,23.20
2023-01-28T17:14:11.382Z,24.50
2023-01-28T17:16:39.866Z,24.07
2023-01-28T17:19:08.321Z,21.43
2023-01-28T17:21:36.772Z,22.20
2023-01-28T17:24:05.570Z,22.90
2023-01-28T17:26:36.743Z,23.27
2023-01-28T17:29:06.234Z,21.10
2023-01-28T17:31:35.319Z,23.87
2023-01-28T17:34:07.066Z,22.53
2023-01-28T17:36:36.012Z,22.17
2023-01-28T17:39:05.849Z,20.93
2023-01-28T17:41:35.943Z,21.50
2023-01-28T17:44:05.207Z,22.23
2023-01-28T17:46:33.966Z,23.40
2023-01-28T17:49:03.534Z,20.17
2023-01-28T17:51:32.093Z,20.93
2023-01-28T17:54:00.840Z,21.93
2023-01-28T17:56:30.528Z,21.40
2023-01-28T17:59:02.467Z,19.47
2023-01-28T18:01:31.583Z,21.13
2023-01-28T18:04:00.584Z,21.03
2023-01-28T18:06:31.572Z,18.83
2023-01-28T18:09:00.095Z,22.33
2023-01-28T18:11:28.867Z,21.07
2023-01-28T18:13:57.319Z,20.03
2023-01-28T18:16:27.165Z,20.70
2023-01-28T18:18:55.607Z,21.43
2023-01-28T18:21:25.164Z,21.50
2023-01-28T18:23:54.242Z,21.47
2023-01-28T18:26:23.850Z,20.60
2023-01-28T18:28:52.607Z,22.07
2023-01-28T18:31:21.136Z,21.00
2023-01-28T18:33:51.113Z,19.30
2023-01-28T18:36:19.834Z,19.73
2023-01-28T18:38:48.279Z,19.80
2023-01-28T18:41:16.785Z,20.17
2023-01-28T18:43:45.248Z,20.10
2023-01-28T18:46:14.398Z,20.17
2023-01-28T18:48:43.007Z,19.57
2023-01-28T18:51:27.664Z,18.60
2023-01-28T18:53:59.182Z,20.03
2023-01-28T18:56:27.696Z,20.40
2023-01-28T18:58:59.332Z,21.13
2023-01-28T19:01:27.938Z,19.23
2023-01-28T19:03:56.699Z,20.13
2023-01-28T19:06:27.356Z,18.87
2023-01-28T19:08:56.411Z,19.77
2023-01-28T19:11:25.785Z,17.43
2023-01-28T19:13:54.688Z,17.37
2023-01-28T19:16:23.401Z,17.80
2023-01-28T19:18:55.163Z,17.43
2023-01-28T19:21:23.633Z,15.30
2023-01-28T19:23:57.164Z,16.77
2023-01-28T19:26:25.747Z,16.83
2023-01-28T19:28:54.483Z,17.70
2023-01-28T19:31:23.667Z,17.20
2023-01-28T19:33:55.417Z,18.93
2023-01-28T19:36:23.950Z,20.23
2023-01-28T19:38:52.347Z,20.90
2023-01-28T19:41:22.165Z,19.97
2023-01-28T19:43:50.587Z,21.03
2023-01-28T19:46:19.336Z,19.90
2023-01-28T19:48:48.181Z,21.37
2023-01-28T19:51:17.269Z,18.70
2023-01-28T19:53:46.331Z,18.63
2023-01-28T19:56:15.805Z,18.07
2023-01-28T19:58:46.041Z,18.37
2023-01-28T20:01:15.166Z,17.73
2023-01-28T20:03:44.047Z,17.10
2023-01-28T20:06:13.603Z,17.97
2023-01-28T20:08:42.068Z,16.50
2023-01-28T20:11:11.440Z,15.10
2023-01-28T20:13:41.075Z,16.20
2023-01-28T20:16:12.693Z,17.03
2023-01-28T20:18:41.176Z,15.20
2023-01-28T20:21:09.596Z,15.30
2023-01-28T20:23:38.109Z,16.27
2023-01-28T20:26:06.524Z,15.47
2023-01-28T20:28:34.943Z,15.13
2023-01-28T20:31:06.016Z,15.50
2023-01-28T20:33:36.042Z,16.43
2023-01-28T20:36:04.669Z,15.90
2023-01-28T20:38:33.075Z,15.20
2023-01-28T20:41:07.113Z,18.67
2023-01-28T20:43:36.001Z,16.80
2023-01-28T20:46:05.078Z,17.30
2023-01-28T20:48:33.578Z,16.03
2023-01-28T20:51:09.444Z,24.43
2023-01-28T20:53:37.889Z,17.27
2023-01-28T20:56:06.595Z,14.90
2023-01-28T20:58:35.037Z,15.80
2023-01-28T21:01:03.757Z,15.30
2023-01-28T21:03:32.406Z,16.33
2023-01-28T21:06:00.770Z,16.40
2023-01-28T21:08:30.559Z,16.97
2023-01-28T21:10:58.949Z,18.53
2023-01-28T21:13:27.405Z,17.40
2023-01-28T21:15:56.446Z,19.77
2023-01-28T21:18:25.110Z,18.53
2023-01-28T21:20:55.015Z,18.03
2023-01-28T21:23:24.464Z,18.67
2023-01-28T21:25:54.220Z,19.13
2023-01-28T21:28:22.900Z,20.93
2023-01-28T21:30:51.332Z,20.13
2023-01-28T21:33:20.121Z,21.67
2023-01-28T21:35:48.867Z,19.00
2023-01-28T21:38:17.303Z,18.13
2023-01-28T21:40:45.690Z,20.23
2023-01-28T21:43:15.451Z,18.73
2023-01-28T21:45:47.639Z,19.00
2023-01-28T21:48:16.163Z,20.43
2023-01-28T21:50:58.426Z,21.37
2023-01-28T21:53:26.830Z,22.13
2023-01-28T21:55:55.544Z,19.30
2023-01-28T21:58:43.004Z,19.63
2023-01-28T22:01:11.799Z,17.97
2023-01-28T22:03:40.273Z,20.67
2023-01-28T22:06:08.732Z,20.00
2023-01-28T22:08:37.226Z,18.03
2023-01-28T22:11:06.190Z,19.17
2023-01-28T22:13:36.738Z,17.70
2023-01-28T22:16:05.532Z,18.57
2023-01-28T22:18:33.998Z,19.17
2023-01-28T22:21:02.932Z,18.20
2023-01-28T22:23:31.335Z,19.57
2023-01-28T22:26:00.371Z,17.97
2023-01-28T22:28:29.397Z,19.33
2023-01-28T22:31:06.703Z,18.27
2023-01-28T22:33:35.166Z,18.87
2023-01-28T22:36:03.981Z,19.63
2023-01-28T22:38:32.335Z,18.47
2023-01-28T22:41:06.402Z,18.13
2023-01-28T22:43:34.822Z,15.73
2023-01-28T22:46:05.407Z,18.50
2023-01-28T22:48:33.991Z,17.63
2023-01-28T22:51:03.480Z,17.77
2023-01-28T22:53:31.891Z,16.77
2023-01-28T22:56:00.323Z,17.80
2023-01-28T22:58:31.159Z,16.53
2023-01-28T23:01:00.028Z,16.40
2023-01-28T23:03:29.820Z,16.73
2023-01-28T23:05:59.680Z,15.20
2023-01-28T23:08:29.628Z,16.00
2023-01-28T23:11:00.711Z,15.67
2023-01-28T23:13:50.572Z,15.00
2023-01-28T23:16:37.161Z,15.40
2023-01-28T23:19:24.990Z,14.57
2023-01-28T23:22:12.346Z,14.93
2023-01-28T23:24:42.842Z,14.70
2023-01-28T23:27:12.252Z,13.97
2023-01-28T23:29:42.989Z,13.77
2023-01-28T23:32:12.788Z,13.47
2023-01-28T23:34:45.345Z,14.93
2023-01-28T23:37:15.112Z,14.00
2023-01-28T23:39:44.244Z,13.60
2023-01-28T23:42:14.729Z,12.47
2023-01-28T23:44:45.201Z,12.67
2023-01-28T23:47:16.072Z,12.37
2023-01-28T23:49:48.116Z,12.13
2023-01-28T23:52:17.867Z,14.07
2023-01-28T23:54:47.879Z,12.23
2023-01-28T23:57:17.202Z,13.87
2023-01-28T23:59:47.510Z,13.47
